Time;durP1;ratioP1;P1;durP2;ratioP2;P2;SDS_P1;SDS_P2;PMS_P1;PMS_P2;Temp;Humidity;BMP_temperature;BMP_pressure;BME280_temperature;BME280_humidity;BME280_pressure;Samples;Min_cycle;Max_cycle;Signal;HPM_P1;HPM_P2
2023/08/24 00:00:16;;;;;;;;;;;;;;;18.55;100.00;101788.53;5090184;28;20024;-37
2023/08/24 00:02:41;;;;;;;6.88;3.25;;;;;;;18.48;100.00;101786.00;5090089;28;19908;-37
2023/08/24 00:05:07;;;;;;;;;;;;;;;18.59;100.00;101782.25;5090383;28;20032;-37
2023/08/24 00:07:32;;;;;;;5.53;2.97;;;;;;;18.42;100.00;101781.56;5089688;28;20364;-37
2023/08/24 00:09:58;;;;;;;3.38;3.00;;;;;;;18.38;100.00;101775.78;5081719;28;20107;-37
2023/08/24 00:12:23;;;;;;;4.00;3.03;;;;;;;18.37;100.00;101774.16;5076672;28;20031;-37
2023/08/24 00:14:49;;;;;;;;;;;;;;;18.57;100.00;101778.13;5076726;28;20020;-37
2023/08/24 00:17:14;;;;;;;6.97;3.13;;;;;;;18.37;100.00;101787.00;5075940;28;19912;-37
2023/08/24 00:19:40;;;;;;;;;;;;;;;18.54;100.00;101790.44;5076316;28;20271;-37
2023/08/24 00:22:05;;;;;;;6.57;3.33;;;;;;;18.28;100.00;101786.66;5076224;28;20002;-37
2023/08/24 00:24:30;;;;;;;;;;;;;;;18.45;100.00;101798.31;5076585;28;20027;-37
2023/08/24 00:26:55;;;;;;;4.63;3.47;;;;;;;18.20;100.00;101785.22;5076132;28;19904;-37
2023/08/24 00:29:21;;;;;;;5.40;2.63;;;;;;;18.10;100.00;101779.63;5075988;28;20039;-37
2023/08/24 00:31:47;;;;;;;6.85;3.03;;;;;;;18.04;100.00;101766.97;5076333;28;20020;-37
2023/08/24 00:34:13;;;;;;;5.05;2.95;;;;;;;17.96;100.00;101767.47;5075957;28;20016;-37
2023/08/24 00:36:38;;;;;;;;;;;;;;;18.09;100.00;101772.50;5076975;28;20028;-37
2023/08/24 00:39:03;;;;;;;3.67;2.70;;;;;;;17.92;100.00;101767.16;5075833;28;20348;-37
2023/08/24 00:41:28;;;;;;;;;;;;;;;18.13;100.00;101762.69;5076271;28;20602;-37
2023/08/24 00:43:54;;;;;;;3.87;2.73;;;;;;;18.01;100.00;101771.09;5076376;28;19909;-37
2023/08/24 00:46:19;;;;;;;;;;;;;;;18.16;100.00;101772.31;5076210;28;20286;-37
2023/08/24 00:48:45;;;;;;;3.90;2.88;;;;;;;18.01;100.00;101775.72;5076215;28;19935;-37
2023/08/24 00:51:10;;;;;;;;;;;;;;;18.16;100.00;101770.41;5076391;28;20365;-37
2023/08/24 00:53:37;;;;;;;4.68;2.95;;;;;;;17.98;100.00;101770.75;5075609;28;20348;-37
2023/08/24 00:56:03;;;;;;;4.28;2.90;;;;;;;17.98;100.00;101771.59;5075577;28;20021;-37
2023/08/24 00:58:29;;;;;;;7.95;3.03;;;;;;;17.93;100.00;101766.06;5075869;28;20044;-37
2023/08/24 01:00:56;;;;;;;4.45;2.90;;;;;;;17.89;100.00;101764.91;5075162;28;20107;-37
2023/08/24 01:03:23;;;;;;;3.47;2.88;;;;;;;17.88;100.00;101759.72;5075708;28;20035;-37
2023/08/24 01:05:48;;;;;;;4.22;2.92;;;;;;;17.91;100.00;101770.13;5075047;28;20380;-37
2023/08/24 01:08:13;;;;;;;;;;;;;;;18.10;100.00;101765.13;5075850;28;20029;-37
2023/08/24 01:10:52;;;;;;;5.82;2.92;;;;;;;17.94;100.00;101762.22;5075279;28;19904;-37
2023/08/24 01:13:31;;;;;;;4.72;3.40;;;;;;;17.92;100.00;101760.84;5075224;28;20036;-37
2023/08/24 01:16:12;;;;;;;4.03;3.33;;;;;;;17.90;100.00;101752.06;5075724;28;20021;-37
2023/08/24 01:18:39;;;;;;;6.00;3.58;;;;;;;17.82;100.00;101749.81;5075027;28;20024;-37
2023/08/24 01:21:05;;;;;;;4.15;3.13;;;;;;;17.87;100.00;101747.13;5074023;28;20024;-37
2023/08/24 01:23:57;;;;;;;4.25;3.42;;;;;;;17.91;100.00;101760.03;5075896;28;20029;-37
2023/08/24 01:26:22;;;;;;;5.15;3.28;;;;;;;17.90;100.00;101760.28;5065101;28;20361;-37
2023/08/24 01:28:48;;;;;;;;;;;;;;;18.08;100.00;101748.97;5075701;28;20036;-37
2023/08/24 01:31:17;;;;;;;6.10;3.42;;;;;;;17.83;100.00;101737.78;5075648;28;19911;-37
2023/08/24 01:33:44;;;;;;;4.72;3.70;;;;;;;17.87;100.00;101747.94;5075084;28;20029;-37
2023/08/24 01:36:12;;;;;;;4.43;3.72;;;;;;;17.86;100.00;101739.97;5074721;28;20025;-37
2023/08/24 01:38:37;;;;;;;6.47;3.75;;;;;;;17.89;100.00;101742.22;5074644;28;20027;-37
2023/08/24 01:41:16;;;;;;;5.18;3.13;;;;;;;17.95;100.00;101743.91;5074635;28;20024;-37
2023/08/24 01:43:45;;;;;;;4.82;3.40;;;;;;;17.97;100.00;101752.69;5075187;28;20082;-37
2023/08/24 01:46:14;;;;;;;5.57;3.70;;;;;;;17.93;100.00;101755.13;5074251;28;20021;-37
2023/08/24 01:48:40;;;;;;;5.63;3.17;;;;;;;18.02;100.00;101760.97;5074837;28;20032;-37
2023/08/24 01:51:06;;;;;;;;;;;;;;;18.15;100.00;101754.22;5075199;28;20103;-37
2023/08/24 01:53:32;;;;;;;4.30;3.30;;;;;;;18.02;100.00;101737.16;5074513;28;20523;-37
2023/08/24 01:55:58;;;;;;;8.30;3.63;;;;;;;18.05;100.00;101744.00;5074373;28;20051;-37
2023/08/24 01:58:23;;;;;;;;;;;;;;;18.22;100.00;101750.19;5075286;28;20080;-37
2023/08/24 02:00:49;;;;;;;5.15;3.33;;;;;;;18.04;100.00;101738.78;5073923;28;19954;-37
2023/08/24 02:03:14;;;;;;;6.40;4.20;;;;;;;18.06;100.00;101762.09;5074497;28;20032;-37
2023/08/24 02:05:39;;;;;;;;;;;;;;;18.17;100.00;101758.34;5075445;28;20441;-37
2023/08/24 02:08:05;;;;;;;6.83;3.77;;;;;;;18.11;100.00;101753.09;5074154;28;19961;-37
2023/08/24 02:10:31;;;;;;;6.78;4.20;;;;;;;18.16;100.00;101747.69;5074375;28;20077;-37
2023/08/24 02:12:56;;;;;;;6.60;3.88;;;;;;;18.16;100.00;101732.06;5074082;28;20085;-37
2023/08/24 02:15:21;;;;;;;;;;;;;;;18.28;100.00;101731.91;5074179;28;20024;-37
2023/08/24 02:17:47;;;;;;;5.22;4.03;;;;;;;18.08;100.00;101721.59;5074750;28;19908;-37
2023/08/24 02:20:12;;;;;;;7.10;4.28;;;;;;;18.01;100.00;101748.38;5074272;28;20082;-37
2023/08/24 02:22:38;;;;;;;;;;;;;;;18.16;100.00;101756.72;5074401;28;20025;-37
2023/08/24 02:25:05;;;;;;;7.00;4.43;;;;;;;18.08;100.00;101748.13;5073897;28;19904;-37
2023/08/24 02:27:31;;;;;;;5.53;4.55;;;;;;;18.02;100.00;101739.06;5073891;28;20158;-37
2023/08/24 02:29:56;;;;;;;6.60;4.40;;;;;;;18.04;100.00;101736.06;5073869;28;20012;-37
2023/08/24 02:32:21;;;;;;;6.93;5.13;;;;;;;18.06;100.00;101745.69;5074163;28;20024;-37
2023/08/24 02:34:47;;;;;;;7.68;4.63;;;;;;;18.10;100.00;101746.78;5073714;28;20037;-37
2023/08/24 02:37:12;;;;;;;;;;;;;;;18.23;100.00;101735.41;5073858;28;20024;-37
2023/08/24 02:39:37;;;;;;;6.07;4.10;;;;;;;18.03;100.00;101713.34;5073465;28;19908;-37
2023/08/24 02:42:03;;;;;;;;;;;;;;;18.24;100.00;101712.41;5074134;28;20281;-37
2023/08/24 02:44:28;;;;;;;8.18;4.47;;;;;;;18.15;100.00;101700.28;5073628;28;19908;-37
2023/08/24 02:46:53;;;;;;;;;;;;;;;18.24;100.00;101706.94;5074396;28;20116;-37
2023/08/24 02:49:19;;;;;;;6.70;4.50;;;;;;;18.08;100.00;101688.75;5073861;28;20245;-37
2023/08/24 02:51:44;;;;;;;;;;;;;;;18.26;100.00;101696.56;5074036;28;20467;-37
2023/08/24 02:54:09;;;;;;;6.17;4.13;;;;;;;18.12;100.00;101662.50;5073302;28;19908;-37
2023/08/24 02:56:34;;;;;;;;;;;;;;;18.30;100.00;101671.41;5074057;28;20251;-37
2023/08/24 02:59:00;;;;;;;6.20;4.03;;;;;;;18.16;100.00;101660.91;5073959;28;19913;-37
2023/08/24 03:01:26;;;;;;;;;;;;;;;18.27;100.00;101659.88;5074241;28;20346;-37
2023/08/24 03:03:52;;;;;;;6.47;4.53;;;;;;;18.19;100.00;101641.22;5073468;28;20007;-37
2023/08/24 03:06:17;;;;;;;6.45;4.90;;;;;;;18.17;100.00;101610.53;5074016;28;20103;-37
2023/08/24 03:08:43;;;;;;;8.00;5.78;;;;;;;18.15;100.00;101592.72;5073466;28;20020;-37
2023/08/24 03:11:08;;;;;;;;;;;;;;;18.14;100.00;101591.91;5074154;28;20025;-37
2023/08/24 03:13:36;;;;;;;9.88;7.80;;;;;;;17.85;100.00;101558.59;5073098;28;20364;-37
2023/08/24 03:16:06;;;;;;;9.50;7.10;;;;;;;17.96;100.00;101564.97;5073475;28;20028;-37
2023/08/24 03:18:31;;;;;;;12.25;7.38;;;;;;;17.94;100.00;101562.47;5073252;28;20032;-37
2023/08/24 03:20:57;;;;;;;8.07;6.72;;;;;;;17.90;100.00;101575.03;5073268;28;20021;-37
2023/08/24 03:23:23;;;;;;;8.30;6.90;;;;;;;17.90;100.00;101577.78;5074415;28;20023;-37
2023/08/24 03:25:48;;;;;;;;;;;;;;;18.01;100.00;101576.78;5074002;28;20027;-37
2023/08/24 03:28:13;;;;;;;7.53;6.77;;;;;;;17.96;100.00;101564.97;5073070;28;19908;-37
2023/08/24 03:30:44;;;;;;;;;;;;;;;18.05;100.00;101568.03;5073950;28;20266;-37
2023/08/24 03:33:10;;;;;;;9.45;6.75;;;;;;;17.97;100.00;101555.69;5073571;28;19927;-37
2023/08/24 03:35:35;;;;;;;;;;;;;;;18.08;100.00;101562.84;5073370;28;20028;-37
2023/08/24 03:38:01;;;;;;;8.80;7.07;;;;;;;17.99;100.00;101559.78;5072842;28;20336;-37
2023/08/24 03:40:26;;;;;;;9.95;7.45;;;;;;;17.97;100.00;101561.97;5073136;28;20020;-37
2023/08/24 03:42:53;;;;;;;;;;;;;;;18.05;100.00;101571.59;5073285;28;20031;-37
2023/08/24 03:45:18;;;;;;;11.90;8.07;;;;;;;17.92;100.00;101569.31;5075120;28;19904;-37
2023/08/24 03:47:44;;;;;;;;;;;;;;;17.99;100.00;101569.91;5077666;28;20349;-37
2023/08/24 03:50:09;;;;;;;11.10;8.13;;;;;;;17.77;100.00;101577.41;5076809;28;19911;-37
2023/08/24 03:52:34;;;;;;;;;;;;;;;17.83;100.00;101576.38;5077164;28;20054;-37
2023/08/24 03:55:00;;;;;;;9.20;7.78;;;;;;;17.82;100.00;101580.19;5076696;28;19904;-37
2023/08/24 03:57:25;;;;;;;;;;;;;;;17.88;100.00;101579.97;5077191;28;20475;-37
2023/08/24 03:59:50;;;;;;;11.07;8.47;;;;;;;17.83;100.00;101584.56;5076292;28;19914;-37
2023/08/24 04:02:16;;;;;;;;;;;;;;;17.91;100.00;101584.91;5077866;28;20305;-37
2023/08/24 04:04:41;;;;;;;10.95;7.68;;;;;;;17.91;100.00;101584.91;5076795;28;19966;-37
2023/08/24 04:07:06;;;;;;;10.52;8.00;;;;;;;17.84;100.00;101562.41;5076793;28;20104;-37
2023/08/24 04:09:32;;;;;;;;;;;;;;;17.98;100.00;101576.47;5076848;28;20129;-37
2023/08/24 04:11:57;;;;;;;8.27;7.03;;;;;;;17.90;100.00;101575.03;5077242;28;19909;-37
2023/08/24 04:14:22;;;;;;;;;;;;;;;17.97;100.00;101561.97;5077300;28;20281;-37
2023/08/24 04:16:48;;;;;;;10.67;8.03;;;;;;;17.88;100.00;101558.06;5076126;28;20344;-37
2023/08/24 04:19:13;;;;;;;;;;;;;;;17.99;100.00;101568.00;5077131;28;20799;-37
2023/08/24 04:21:38;;;;;;;8.70;7.33;;;;;;;17.97;100.00;101572.09;5076834;28;19912;-37
2023/08/24 04:24:04;;;;;;;;;;;;;;;18.06;100.00;101584.19;5076588;28;20271;-37
2023/08/24 04:26:29;;;;;;;11.65;8.10;;;;;;;17.92;100.00;101569.31;5077023;28;19915;-37
2023/08/24 04:28:54;;;;;;;;;;;;;;;18.00;100.00;101563.34;5077067;28;20028;-37
2023/08/24 04:31:20;;;;;;;9.63;8.00;;;;;;;17.93;100.00;101565.50;5076132;28;19951;-37
2023/08/24 04:33:45;;;;;;;9.55;8.10;;;;;;;17.92;100.00;101559.19;5076038;28;20063;-37
2023/08/24 04:36:10;;;;;;;;;;;;;;;18.04;100.00;101559.00;5076995;28;20032;-37
2023/08/24 04:38:36;;;;;;;10.90;8.23;;;;;;;17.94;100.00;101557.00;5075897;28;19958;-37
2023/08/24 04:41:07;;;;;;;;;;;;;;;18.04;100.00;101561.72;5075998;28;20285;-37
2023/08/24 04:43:32;;;;;;;9.45;8.45;;;;;;;17.81;100.00;101537.47;5076134;28;19904;-37
2023/08/24 04:45:58;;;;;;;;;;;;;;;17.98;100.00;101549.94;5076152;28;20027;-37
2023/08/24 04:48:32;;;;;;;13.93;8.70;;;;;;;17.91;100.00;101557.56;5076021;28;19904;-37
2023/08/24 04:50:58;;;;;;;11.40;9.07;;;;;;;17.83;100.00;101568.97;5075677;28;20048;-37
2023/08/24 04:53:24;;;;;;;12.57;9.50;;;;;;;17.85;100.00;101572.25;5076232;28;20067;-37
2023/08/24 04:55:49;;;;;;;;;;;;;;;17.90;100.00;101577.78;5075950;28;20048;-37
2023/08/24 04:58:15;;;;;;;11.75;9.88;;;;;;;17.71;100.00;101574.59;5075420;28;19966;-37
2023/08/24 05:00:40;;;;;;;;;;;;;;;17.78;100.00;101568.13;5075682;28;20043;-37
2023/08/24 05:03:06;;;;;;;11.03;9.90;;;;;;;17.64;100.00;101568.50;5075241;28;20360;-37
2023/08/24 05:05:32;;;;;;;;;;;;;;;17.74;100.00;101573.28;5075447;28;20593;-37
2023/08/24 05:07:58;;;;;;;13.32;9.60;;;;;;;17.70;100.00;101562.00;5075075;28;19915;-37
2023/08/24 05:10:23;;;;;;;;;;;;;;;17.79;100.00;101576.06;5075702;28;20119;-37
2023/08/24 05:12:48;;;;;;;11.48;9.77;;;;;;;17.73;100.00;101571.63;5076076;28;19908;-37
2023/08/24 05:15:14;;;;;;;12.15;9.70;;;;;;;17.72;100.00;101561.75;5075219;28;20472;-37
2023/08/24 05:17:40;;;;;;;;;;;;;;;17.86;100.00;101564.88;5076400;28;20016;-37
2023/08/24 05:20:11;;;;;;;12.15;9.65;;;;;;;17.78;100.00;101568.94;5075100;28;20011;-37
2023/08/24 05:22:37;;;;;;;14.45;11.48;;;;;;;17.80;100.00;101571.41;5075651;28;20024;-37
2023/08/24 05:25:03;;;;;;;12.38;10.30;;;;;;;17.79;100.00;101559.63;5075306;28;20031;-37
2023/08/24 05:27:28;;;;;;;;;;;;;;;17.89;100.00;101562.44;5075996;28;20020;-38
2023/08/24 05:29:53;;;;;;;14.63;10.30;;;;;;;17.75;100.00;101542.09;5074873;28;19942;-37
2023/08/24 05:32:19;;;;;;;;;;;;;;;17.95;100.00;101555.09;5075806;28;20333;-37
2023/08/24 05:34:45;;;;;;;11.70;10.40;;;;;;;17.91;100.00;101551.22;5075031;28;19942;-38
2023/08/24 05:37:10;;;;;;;14.23;10.85;;;;;;;17.93;100.00;101549.06;5075059;28;20090;-37
2023/08/24 05:39:36;;;;;;;11.20;9.85;;;;;;;18.00;100.00;101541.44;5074866;28;20441;-37
2023/08/24 05:42:01;;;;;;;;;;;;;;;18.19;100.00;101556.34;5075154;28;20094;-37
2023/08/24 05:44:26;;;;;;;14.83;10.60;;;;;;;18.15;100.00;101529.78;5074653;28;19995;-37
2023/08/24 05:46:52;;;;;;;;;;;;;;;18.35;100.00;101534.53;5075055;28;20254;-37
2023/08/24 05:49:17;;;;;;;14.07;11.30;;;;;;;18.32;100.00;101529.59;5074559;28;19911;-37
2023/08/24 05:51:42;;;;;;;;;;;;;;;18.45;100.00;101526.41;5075184;28;20276;-37
2023/08/24 05:54:07;;;;;;;14.00;10.47;;;;;;;18.41;100.00;101520.63;5074157;28;20367;-37
2023/08/24 05:56:33;;;;;;;;;;;;;;;18.50;100.00;101521.75;5075152;28;20726;-37
2023/08/24 05:58:58;;;;;;;12.07;10.73;;;;;;;18.42;100.00;101503.09;5074895;28;19918;-37
2023/08/24 06:01:24;;;;;;;;;;;;;;;18.62;100.00;101505.06;5075368;28;20251;-37
2023/08/24 06:03:50;;;;;;;15.00;11.65;;;;;;;18.57;100.00;101505.06;5073993;28;19916;-37
2023/08/24 06:06:15;;;;;;;;;;;;;;;18.66;100.00;101491.69;5074614;28;20024;-37
2023/08/24 06:08:41;;;;;;;15.73;12.18;;;;;;;18.66;100.00;101494.41;5073426;28;20011;-37
2023/08/24 06:11:07;;;;;;;18.35;12.70;;;;;;;18.61;100.00;101489.75;5074440;28;20368;-38
2023/08/24 06:13:32;;;;;;;;;;;;;;;18.78;100.00;101478.56;5074282;28;20031;-37
2023/08/24 06:15:58;;;;;;;16.33;11.15;;;;;;;18.74;100.00;101472.84;5074079;28;20007;-37
2023/08/24 06:18:23;;;;;;;;;;;;;;;18.95;100.00;101478.34;5074445;28;20112;-38
2023/08/24 06:20:49;;;;;;;15.98;11.70;;;;;;;18.93;100.00;101477.78;5073931;28;20253;-38
2023/08/24 06:23:17;;;;;;;14.05;10.75;;;;;;;19.00;100.00;101481.09;5074297;28;20052;-37
2023/08/24 06:25:42;;;;;;;11.70;10.50;;;;;;;19.04;100.00;101491.25;5073957;28;20033;-37
2023/08/24 06:28:09;;;;;;;;;;;;;;;19.18;100.00;101493.44;5074335;28;20341;-37
2023/08/24 06:30:38;;;;;;;11.70;10.50;;;;;;;19.11;100.00;101496.44;5074142;28;19912;-37
2023/08/24 06:33:04;;;;;;;14.82;11.23;;;;;;;19.19;100.00;101503.34;5073542;28;20108;-37
2023/08/24 06:35:29;;;;;;;;;;;;;;;19.34;100.00;101497.03;5074229;28;20091;-37
2023/08/24 06:37:55;;;;;;;12.37;11.13;;;;;;;19.24;100.00;101493.19;5073961;28;19916;-37
2023/08/24 06:40:20;;;;;;;12.60;11.18;;;;;;;19.35;100.00;101493.19;5073729;28;20271;-37
2023/08/24 06:42:45;;;;;;;;;;;;;;;19.45;100.00;101495.94;5073878;28;20020;-38
2023/08/24 06:45:11;;;;;;;11.07;9.63;;;;;;;19.45;100.00;101491.25;5073972;28;19911;-37
2023/08/24 06:47:37;;;;;;;12.25;10.95;;;;;;;19.48;100.00;101489.91;5073381;28;20020;-37
2023/08/24 06:50:02;;;;;;;11.63;10.40;;;;;;;19.48;100.00;101481.69;5074114;28;20027;-37
2023/08/24 06:52:28;;;;;;;12.43;10.80;;;;;;;19.50;100.00;101479.47;5073881;28;20020;-37
2023/08/24 06:54:55;;;;;;;11.88;10.63;;;;;;;19.64;100.00;101488.00;5073529;28;20086;-37
2023/08/24 06:57:21;;;;;;;12.85;10.93;;;;;;;19.63;100.00;101478.94;5074365;28;20052;-37
2023/08/24 06:59:47;;;;;;;13.63;10.38;;;;;;;19.75;100.00;101487.69;5074128;28;20072;-37
2023/08/24 07:02:12;;;;;;;11.98;10.13;;;;;;;19.79;100.00;101488.78;5074076;28;20074;-38
2023/08/24 07:04:40;;;;;;;12.05;10.85;;;;;;;19.77;100.00;101479.22;5073473;28;20031;-38
2023/08/24 07:07:05;;;;;;;12.20;10.35;;;;;;;19.88;100.00;101482.75;5073473;28;20107;-37
2023/08/24 07:09:31;;;;;;;11.70;9.57;;;;;;;19.95;100.00;101478.59;5073495;28;20123;-37
2023/08/24 07:11:56;;;;;;;13.68;10.10;;;;;;;20.03;100.00;101467.06;5073476;28;20082;-37
2023/08/24 07:14:21;;;;;;;10.52;9.43;;;;;;;19.99;100.00;101449.50;5073486;28;20020;-37
2023/08/24 07:16:47;;;;;;;11.90;9.45;;;;;;;20.14;100.00;101465.09;5073700;28;20028;-37
2023/08/24 07:19:12;;;;;;;11.75;9.88;;;;;;;20.20;100.00;101466.72;5073600;28;20522;-37
2023/08/24 07:21:37;;;;;;;12.40;10.05;;;;;;;20.31;100.00;101465.59;5077122;28;20456;-37
2023/08/24 07:24:03;;;;;;;12.13;10.10;;;;;;;20.35;100.00;101465.00;5077047;28;20056;-37
2023/08/24 07:26:30;;;;;;;10.40;9.38;;;;;;;20.38;100.00;101454.28;5077603;28;20360;-37
2023/08/24 07:28:55;;;;;;;12.95;9.57;;;;;;;20.44;100.00;101446.84;5077480;28;20029;-37
2023/08/24 07:31:22;;;;;;;10.90;8.75;;;;;;;20.50;100.00;101451.25;5077183;28;20021;-37
2023/08/24 07:33:48;;;;;;;13.38;8.98;;;;;;;20.57;100.00;101454.50;5077142;28;20069;-37
2023/08/24 07:36:13;;;;;;;11.60;8.95;;;;;;;20.68;100.00;101450.59;5077369;28;20103;-37
2023/08/24 07:38:38;;;;;;;12.20;8.73;;;;;;;20.73;100.00;101444.22;5076885;28;20460;-38
2023/08/24 07:41:06;;;;;;;10.80;8.73;;;;;;;20.89;100.00;101456.78;5077248;28;20036;-38
2023/08/24 07:43:31;;;;;;;11.50;8.05;;;;;;;20.99;100.00;101447.66;5077721;28;20021;-37
2023/08/24 07:45:56;;;;;;;12.07;8.07;;;;;;;21.05;100.00;101443.75;5076683;28;20475;-37
2023/08/24 07:48:22;;;;;;;9.43;8.43;;;;;;;21.15;100.00;101440.91;5077640;28;20033;-38
2023/08/24 07:50:47;;;;;;;11.70;8.20;;;;;;;21.13;100.00;101423.88;5076824;28;20073;-38
2023/08/24 07:53:13;;;;;;;11.25;7.85;;;;;;;21.21;100.00;101433.44;5076507;28;20118;-37
2023/08/24 07:55:39;;;;;;;8.52;7.63;;;;;;;21.39;100.00;101448.44;5076689;28;20028;-37
2023/08/24 07:58:04;;;;;;;8.60;7.70;;;;;;;21.45;100.00;101450.03;5076663;28;20036;-37
2023/08/24 08:00:30;;;;;;;10.43;8.35;;;;;;;21.47;100.00;101442.31;5076657;28;20032;-37
2023/08/24 08:02:56;;;;;;;10.60;8.15;;;;;;;21.53;100.00;101453.00;5077449;28;20021;-37
2023/08/24 08:05:22;;;;;;;10.50;8.18;;;;;;;21.57;100.00;101459.56;5077008;28;20024;-37
2023/08/24 08:07:48;;;;;;;11.10;7.90;;;;;;;21.59;100.00;101459.25;5093031;28;20372;-37
2023/08/24 08:10:15;;;;;;;9.35;8.38;;;;;;;21.62;100.00;101458.69;5076378;28;20024;-38
2023/08/24 08:12:40;;;;;;;11.68;8.88;;;;;;;21.72;100.00;101458.59;5076447;28;20023;-37
2023/08/24 08:15:06;;;;;;;9.80;8.23;;;;;;;21.74;100.00;101456.34;5076892;28;20024;-37
2023/08/24 08:17:33;;;;;;;12.25;8.27;;;;;;;21.83;100.00;101460.09;5076239;28;20025;-37
2023/08/24 08:19:58;;;;;;;11.88;8.77;;;;;;;21.83;100.00;101453.78;5076222;28;20020;-37
2023/08/24 08:22:25;;;;;;;9.35;8.15;;;;;;;21.93;100.00;101452.84;5075956;28;20411;-38
2023/08/24 08:24:51;;;;;;;10.02;7.78;;;;;;;22.01;100.00;101454.94;5076616;28;20095;-37
2023/08/24 08:27:16;;;;;;;9.13;8.13;;;;;;;22.09;100.00;101440.53;5076342;28;20416;-37
2023/08/24 08:29:42;;;;;;;10.15;7.97;;;;;;;22.20;100.00;101447.59;5076033;28;20025;-37
2023/08/24 08:32:08;;;;;;;10.88;8.52;;;;;;;22.26;100.00;101423.56;5075892;28;20030;-37
2023/08/24 08:34:33;;;;;;;10.65;9.13;;;;;;;22.38;100.00;101425.88;5076318;28;20020;-37
2023/08/24 08:36:58;;;;;;;13.57;8.50;;;;;;;22.33;100.00;101411.06;5076321;28;20466;-37
2023/08/24 08:39:24;;;;;;;11.93;8.57;;;;;;;22.39;100.00;101409.03;5075543;28;20036;-37
2023/08/24 08:41:49;;;;;;;12.68;8.93;;;;;;;22.42;100.00;101405.72;5075922;28;20035;-37
2023/08/24 08:44:15;;;;;;;8.90;7.97;;;;;;;22.49;100.00;101395.13;5076658;28;20376;-37
2023/08/24 08:46:42;;;;;;;8.48;7.47;;;;;;;22.58;100.00;101392.53;5076101;28;20073;-37
2023/08/24 08:49:09;;;;;;;12.32;8.85;;;;;;;22.61;100.00;101369.88;5076266;28;20025;-37
2023/08/24 08:51:36;;;;;;;9.32;7.30;;;;;;;22.72;100.00;101371.34;5076290;28;20372;-37
2023/08/24 08:54:02;;;;;;;10.13;8.02;;;;;;;22.82;100.00;101359.34;5076175;28;20043;-37
2023/08/24 08:56:30;;;;;;;9.60;8.23;;;;;;;22.94;100.00;101367.19;5075341;28;20033;-37
2023/08/24 08:58:57;;;;;;;12.35;8.43;;;;;;;22.92;100.00;101367.47;5075212;28;20476;-37
2023/08/24 09:01:24;;;;;;;8.95;7.72;;;;;;;23.03;100.00;101354.31;5076386;28;20090;-37
2023/08/24 09:03:50;;;;;;;9.82;8.32;;;;;;;23.09;100.00;101348.44;5075479;28;20025;-37
2023/08/24 09:06:15;;;;;;;11.50;7.90;;;;;;;23.16;100.00;101352.72;5075443;28;20021;-37
2023/08/24 09:08:41;;;;;;;11.25;8.57;;;;;;;23.15;100.00;101346.41;5075461;28;20024;-37
2023/08/24 09:11:08;;;;;;;10.35;8.18;;;;;;;23.28;100.00;101340.09;5075579;28;20103;-38
2023/08/24 09:13:34;;;;;;;14.18;9.38;;;;;;;23.22;100.00;101321.97;5075249;28;20032;-37
2023/08/24 09:16:07;;;;;;;11.93;8.32;;;;;;;23.31;100.00;101322.09;5075877;28;20028;-37
2023/08/24 09:18:39;;;;;;;14.07;9.27;;;;;;;23.31;100.00;101306.34;5075205;28;20046;-37
2023/08/24 09:21:13;;;;;;;11.00;8.57;;;;;;;23.28;100.00;101292.38;5074839;28;20376;-37
2023/08/24 09:23:44;;;;;;;9.48;7.95;;;;;;;23.40;100.00;101289.91;5075686;28;20028;-37
2023/08/24 09:26:10;;;;;;;10.85;8.68;;;;;;;23.45;100.00;101289.81;5075315;28;20025;-37
2023/08/24 09:28:36;;;;;;;10.30;8.23;;;;;;;23.50;100.00;101302.69;5075560;28;20032;-37
2023/08/24 09:31:02;;;;;;;8.70;7.80;;;;;;;23.49;100.00;101284.50;5074562;28;20530;-37
2023/08/24 09:33:28;;;;;;;12.02;7.95;;;;;;;23.63;100.00;101293.59;5075460;28;20032;-37
2023/08/24 09:36:01;;;;;;;9.63;7.65;;;;;;;23.71;100.00;101298.41;5074779;28;20062;-37
2023/08/24 09:38:27;;;;;;;14.30;8.98;;;;;;;23.73;100.00;101295.34;5074973;28;20028;-37
2023/08/24 09:40:55;;;;;;;11.48;8.05;;;;;;;23.80;100.00;101299.31;5075485;28;20429;-37
2023/08/24 09:43:21;;;;;;;9.20;7.88;;;;;;;23.79;100.00;101297.69;5074740;28;20378;-37
2023/08/24 09:45:57;;;;;;;15.02;8.43;;;;;;;23.90;100.00;101317.63;5074642;28;20478;-38
2023/08/24 09:48:23;;;;;;;10.13;8.30;;;;;;;24.05;100.00;101341.31;5074403;28;20093;-38
2023/08/24 09:50:51;;;;;;;10.32;9.20;;;;;;;24.05;100.00;101335.78;5074456;28;20023;-37
2023/08/24 09:53:20;;;;;;;11.82;9.65;;;;;;;24.08;100.00;101343.47;5074379;28;20028;-38
2023/08/24 09:55:54;;;;;;;10.35;8.55;;;;;;;24.11;100.00;101334.56;5074430;28;20078;-38
2023/08/24 09:58:21;;;;;;;12.25;9.32;;;;;;;24.06;99.40;101337.44;5074868;28;20388;-38
2023/08/24 10:00:47;;;;;;;14.50;10.00;;;;;;;23.97;100.00;101326.31;5074205;28;20511;-38
2023/08/24 10:03:20;;;;;;;9.63;8.57;;;;;;;24.02;100.00;101341.97;5074583;28;20028;-38
2023/08/24 10:05:47;;;;;;;9.32;8.38;;;;;;;24.04;100.00;101339.69;5075095;28;20028;-38
2023/08/24 10:08:15;;;;;;;9.70;7.88;;;;;;;24.09;100.00;101345.09;5074488;28;20472;-38
2023/08/24 10:10:42;;;;;;;14.77;9.10;;;;;;;24.05;100.00;101353.19;5074156;28;20017;-38
2023/08/24 10:13:19;;;;;;;11.15;8.68;;;;;;;24.11;100.00;101356.69;5074058;28;20032;-38
2023/08/24 10:15:46;;;;;;;15.52;9.05;;;;;;;24.09;100.00;101356.97;5074888;28;20025;-38
2023/08/24 10:18:15;;;;;;;10.00;8.50;;;;;;;24.01;100.00;101346.66;5073932;28;20021;-38
2023/08/24 10:20:42;;;;;;;10.35;7.95;;;;;;;23.93;100.00;101338.28;5073995;28;20044;-38
2023/08/24 10:23:09;;;;;;;9.27;7.90;;;;;;;23.97;100.00;101344.84;5075123;28;20021;-38
2023/08/24 10:25:36;;;;;;;13.45;8.23;;;;;;;23.93;100.00;101346.56;5074175;28;20039;-38
2023/08/24 10:28:02;;;;;;;11.30;7.90;;;;;;;23.92;100.00;101336.66;5074488;28;20020;-38
2023/08/24 10:30:30;;;;;;;9.48;7.50;;;;;;;23.93;100.00;101343.81;5073873;28;20408;-41
2023/08/24 10:32:57;;;;;;;8.93;7.38;;;;;;;23.82;100.00;101329.41;5073856;28;20024;-38
2023/08/24 10:35:23;;;;;;;9.23;7.72;;;;;;;23.83;100.00;101334.59;5074364;28;20024;-38
2023/08/24 10:37:53;;;;;;;11.82;8.20;;;;;;;23.84;100.00;101347.28;5074518;28;20027;-38
2023/08/24 10:40:31;;;;;;;12.02;7.93;;;;;;;23.84;100.00;101350.03;5073717;28;20024;-38
2023/08/24 10:42:56;;;;;;;12.80;8.10;;;;;;;23.74;100.00;101346.69;5074335;28;20028;-38
2023/08/24 10:45:23;;;;;;;8.73;7.82;;;;;;;23.77;100.00;101352.41;5074003;28;20031;-38
2023/08/24 10:47:53;;;;;;;10.32;8.02;;;;;;;23.74;100.00;101364.06;5073990;28;20423;-38
2023/08/24 10:50:19;;;;;;;9.77;8.48;;;;;;;23.67;100.00;101360.91;5074496;28;20020;-38
2023/08/24 10:52:45;;;;;;;12.13;8.02;;;;;;;23.73;100.00;101367.97;5073918;28;20472;-37
2023/08/24 10:55:27;;;;;;;9.98;8.63;;;;;;;23.72;100.00;101354.44;5073090;28;20025;-38
2023/08/24 10:58:00;;;;;;;10.98;8.63;;;;;;;23.73;100.00;101345.88;5073461;28;20039;-38
2023/08/24 11:00:30;;;;;;;11.38;8.43;;;;;;;23.76;100.00;101356.28;5073542;28;20025;-38
2023/08/24 11:02:56;;;;;;;12.27;8.30;;;;;;;23.82;100.00;101335.75;5073278;28;20021;-38
2023/08/24 11:05:27;;;;;;;12.13;8.27;;;;;;;23.86;100.00;101324.88;5073260;28;20025;-38
2023/08/24 11:07:56;;;;;;;10.85;8.23;;;;;;;23.94;100.00;101324.16;5073773;28;20028;-38
2023/08/24 11:10:23;;;;;;;9.43;8.48;;;;;;;24.03;100.00;101324.25;5073066;28;20024;-38
2023/08/24 11:13:04;;;;;;;12.57;9.20;;;;;;;24.02;100.00;101306.88;5073173;28;20112;-38
2023/08/24 11:15:36;;;;;;;10.05;8.95;;;;;;;24.23;100.00;101329.31;5073305;28;20028;-38
2023/08/24 11:18:29;;;;;;;13.70;10.40;;;;;;;24.29;100.00;101319.78;5073842;28;20048;-38
2023/08/24 11:21:02;;;;;;;13.50;10.73;;;;;;;24.35;100.00;101326.00;5074191;28;20036;-38
2023/08/24 11:23:28;;;;;;;11.27;9.55;;;;;;;24.34;100.00;101322.41;5073314;28;20533;-38